createdAt,value
2023-03-11T11:55:48.534Z,64.36
2023-03-11T11:58:57.663Z,67.67
2023-03-11T12:02:14.652Z,70.73
2023-03-11T12:05:28.507Z,72.45
2023-03-11T12:08:40.284Z,72.82
2023-03-11T12:11:54.551Z,73.08
2023-03-11T12:15:10.476Z,73.29
2023-03-11T12:18:21.408Z,73.73
2023-03-11T12:21:43.194Z,73.37
2023-03-11T12:25:03.504Z,74.32
2023-03-11T12:28:22.020Z,74.24
2023-03-11T12:31:31.708Z,74.18
2023-03-11T12:34:37.608Z,74.61
2023-03-11T12:37:45.754Z,75.03
2023-03-11T12:41:01.791Z,74.03
2023-03-11T12:44:23.839Z,74.34
2023-03-11T12:47:29.229Z,74.57
2023-03-11T12:50:41.884Z,74.74
2023-03-11T12:53:48.726Z,74.62
2023-03-11T12:56:57.366Z,74.99
2023-03-11T13:00:24.184Z,74.76
2023-03-11T13:03:53.134Z,74.69
2023-03-11T13:07:34.858Z,74.24
2023-03-11T13:10:41.620Z,74.40
2023-03-11T13:13:45.641Z,75.04
2023-03-11T13:16:51.692Z,74.74
2023-03-11T13:19:57.471Z,75.05
2023-03-11T13:23:21.881Z,75.41
2023-03-11T13:26:45.630Z,75.44
2023-03-11T13:30:02.766Z,75.28
2023-03-11T13:33:26.455Z,75.58
2023-03-11T13:36:56.764Z,75.20
2023-03-11T13:40:14.627Z,75.14
2023-03-11T13:43:21.811Z,75.69
2023-03-11T13:46:32.036Z,75.21
2023-03-11T13:49:42.622Z,75.14
2023-03-11T13:52:50.598Z,75.54
2023-03-11T13:55:54.979Z,76.04
2023-03-11T13:59:17.740Z,75.38
2023-03-11T14:02:28.693Z,76.49
2023-03-11T14:22:03.352Z,75.92
2023-03-11T14:25:38.612Z,77.90
2023-03-11T14:33:04.623Z,79.47
2023-03-11T14:39:54.121Z,81.16
2023-03-11T14:43:12.618Z,82.63
2023-03-11T14:46:26.230Z,82.64
2023-03-11T14:49:33.043Z,83.20
2023-03-11T14:52:46.871Z,83.10
2023-03-11T14:55:57.376Z,84.33
2023-03-11T14:59:13.577Z,84.09
2023-03-11T15:02:46.282Z,83.70
2023-03-11T15:06:05.166Z,82.30
2023-03-11T15:09:18.878Z,83.53
2023-03-11T15:12:35.801Z,82.71
2023-03-11T15:19:36.281Z,83.24
2023-03-11T15:23:13.641Z,83.24
2023-03-11T15:26:26.468Z,82.13
2023-03-11T15:29:34.115Z,82.77
2023-03-11T15:32:43.923Z,81.54
2023-03-11T15:35:57.500Z,82.75
2023-03-11T15:39:20.145Z,83.71
2023-03-11T15:42:32.327Z,83.38
2023-03-11T15:45:38.911Z,84.22
2023-03-11T15:53:06.230Z,83.39
2023-03-11T15:56:25.516Z,82.80
2023-03-11T15:59:32.654Z,82.98
2023-03-11T16:02:45.511Z,83.32
2023-03-11T16:13:39.221Z,82.09
2023-03-11T16:16:49.038Z,82.17
2023-03-11T16:19:54.411Z,79.78
2023-03-11T16:23:01.991Z,82.37
2023-03-11T16:30:21.982Z,80.72
2023-03-11T16:33:30.414Z,81.53
2023-03-11T16:36:35.234Z,80.17
2023-03-11T16:39:39.429Z,80.91
2023-03-11T16:42:45.275Z,80.25
2023-03-11T16:45:53.013Z,81.95
2023-03-11T16:48:58.022Z,79.56
2023-03-11T16:52:03.234Z,82.58
2023-03-11T16:55:09.774Z,83.31
2023-03-11T16:58:16.189Z,82.86
2023-03-11T17:01:28.161Z,82.78
2023-03-11T17:04:33.832Z,79.40
2023-03-11T17:07:39.831Z,82.41
2023-03-11T17:10:47.388Z,80.43
2023-03-11T17:13:54.180Z,82.41
2023-03-11T17:17:00.521Z,82.94
2023-03-11T17:20:08.075Z,81.31
2023-03-11T17:23:12.404Z,81.30
2023-03-11T17:26:19.068Z,82.65
2023-03-11T17:29:24.986Z,81.95
2023-03-11T17:32:32.688Z,82.90
2023-03-11T17:35:38.048Z,82.95
2023-03-11T17:38:43.052Z,82.31
2023-03-11T17:41:48.423Z,82.58
2023-03-11T17:44:57.697Z,82.87
2023-03-11T17:48:03.764Z,80.24
2023-03-11T17:51:15.939Z,82.28
2023-03-11T17:54:20.436Z,83.69
2023-03-11T17:57:25.914Z,84.63
2023-03-11T18:00:30.648Z,82.38
2023-03-11T18:03:37.212Z,80.92
2023-03-11T18:06:41.836Z,81.05
2023-03-11T18:09:47.198Z,82.92
2023-03-11T18:12:51.790Z,82.02
2023-03-11T18:16:01.324Z,84.46
2023-03-11T18:19:07.122Z,83.09
2023-03-11T18:22:12.352Z,83.06
2023-03-11T18:25:16.678Z,81.59
2023-03-11T18:28:21.790Z,83.34
2023-03-11T18:31:28.810Z,84.59
2023-03-11T18:34:35.811Z,82.86
2023-03-11T18:37:40.896Z,84.29
2023-03-11T18:40:46.841Z,85.14
2023-03-11T18:43:55.181Z,83.92
2023-03-11T18:47:01.029Z,83.40
2023-03-11T18:50:09.873Z,82.71
2023-03-11T18:53:16.854Z,83.00
2023-03-11T18:56:23.354Z,83.56
2023-03-11T18:59:31.317Z,82.85
2023-03-11T19:02:39.453Z,84.23
2023-03-11T19:05:54.771Z,83.06
2023-03-11T19:09:02.306Z,83.26
2023-03-11T19:12:21.517Z,84.01
2023-03-11T19:15:40.839Z,84.15
2023-03-11T19:19:15.406Z,84.48
2023-03-11T19:22:38.639Z,84.48
2023-03-11T19:26:03.361Z,84.39
2023-03-11T19:29:25.441Z,83.42
2023-03-11T19:32:35.612Z,84.39
2023-03-11T19:35:44.020Z,84.12
2023-03-11T19:39:13.418Z,85.15
2023-03-11T19:42:29.427Z,84.93
2023-03-11T19:45:51.031Z,84.52
2023-03-11T19:49:19.535Z,83.69
2023-03-11T19:52:32.612Z,83.50
2023-03-11T19:56:28.172Z,84.43
2023-03-11T19:59:51.497Z,82.72
2023-03-11T20:03:29.228Z,82.88
2023-03-11T20:07:11.985Z,83.45
2023-03-11T20:10:21.899Z,83.76
2023-03-11T20:13:33.500Z,84.62
2023-03-11T20:16:56.185Z,83.06
2023-03-11T20:20:26.725Z,83.33
2023-03-11T20:23:40.374Z,83.52
2023-03-11T20:26:51.413Z,83.90
2023-03-11T20:30:06.421Z,84.44
2023-03-11T20:33:18.589Z,83.55
2023-03-11T20:36:40.927Z,83.32
2023-03-11T20:40:11.091Z,83.29
2023-03-11T20:48:10.523Z,83.91
2023-03-11T20:51:56.398Z,84.79
2023-03-11T20:55:27.892Z,85.09
2023-03-11T20:58:34.213Z,83.74
2023-03-11T21:01:45.391Z,85.61
2023-03-11T21:04:52.003Z,83.35
2023-03-11T21:07:57.252Z,83.50
2023-03-11T21:11:02.721Z,84.10
2023-03-11T21:14:10.063Z,84.49
2023-03-11T21:17:14.534Z,82.63
2023-03-11T21:20:26.566Z,82.84
2023-03-11T21:23:34.745Z,82.73
2023-03-11T21:26:44.992Z,82.99
2023-03-11T21:29:49.620Z,84.15
2023-03-11T21:32:54.475Z,83.94
2023-03-11T21:36:02.817Z,84.25
